createdAt,value
2019-04-29T00:01:20.818Z,3.57
2019-04-29T00:03:48.623Z,3.27
2019-04-29T00:06:15.889Z,3.20
2019-04-29T00:08:43.470Z,3.30
2019-04-29T00:11:11.066Z,3.20
2019-04-29T00:13:38.434Z,3.77
2019-04-29T00:16:25.632Z,4.13
2019-04-29T00:19:23.837Z,4.27
2019-04-29T00:21:51.197Z,3.97
2019-04-29T00:24:18.431Z,3.70
2019-04-29T00:26:45.928Z,3.80
2019-04-29T00:29:13.181Z,5.07
2019-04-29T00:31:40.466Z,4.03
2019-04-29T00:34:07.736Z,5.90
2019-04-29T00:36:42.109Z,4.80
2019-04-29T00:39:40.875Z,4.93
2019-04-29T00:42:18.360Z,3.90
2019-04-29T00:44:45.742Z,5.97
2019-04-29T00:47:13.195Z,3.70
2019-04-29T00:49:40.453Z,4.87
2019-04-29T00:52:07.936Z,4.90
2019-04-29T00:54:44.010Z,4.33
2019-04-29T00:57:11.306Z,4.03
2019-04-29T00:59:38.591Z,3.97
2019-04-29T01:02:06.975Z,4.20
2019-04-29T01:04:34.352Z,5.00
2019-04-29T01:07:01.638Z,3.77
2019-04-29T01:09:30.223Z,3.93
2019-04-29T01:11:57.462Z,5.20
2019-04-29T01:14:24.725Z,7.03
2019-04-29T01:16:51.968Z,4.87
2019-04-29T01:19:19.209Z,4.50
2019-04-29T01:21:46.495Z,6.53
2019-04-29T01:24:13.727Z,7.37
2019-04-29T01:26:59.748Z,8.03
2019-04-29T01:29:27.673Z,6.90
2019-04-29T01:31:54.937Z,5.63
2019-04-29T01:34:27.293Z,7.83
2019-04-29T01:36:54.505Z,7.30
2019-04-29T01:39:24.972Z,7.23
2019-04-29T01:42:23.753Z,7.90
2019-04-29T01:44:51.017Z,6.90
2019-04-29T01:47:18.332Z,6.70
2019-04-29T01:49:45.541Z,5.97
2019-04-29T01:52:12.771Z,5.90
2019-04-29T01:54:40.065Z,5.40
2019-04-29T01:57:07.405Z,4.40
2019-04-29T01:59:34.730Z,5.33
2019-04-29T02:02:02.143Z,5.63
2019-04-29T02:04:29.389Z,4.47
2019-04-29T02:06:56.726Z,3.97
2019-04-29T02:09:32.330Z,3.70
2019-04-29T02:11:59.740Z,3.57
2019-04-29T02:14:26.963Z,5.00
2019-04-29T02:16:54.254Z,4.77
2019-04-29T02:19:21.498Z,5.47
2019-04-29T02:22:06.718Z,4.83
2019-04-29T02:24:36.130Z,4.07
2019-04-29T02:27:05.740Z,4.53
2019-04-29T02:29:32.525Z,6.63
2019-04-29T02:31:59.759Z,4.73
2019-04-29T02:34:27.014Z,4.77
2019-04-29T02:36:54.244Z,4.87
2019-04-29T02:39:45.057Z,5.27
2019-04-29T02:42:30.218Z,4.70
2019-04-29T02:45:01.593Z,4.43
2019-04-29T02:47:28.813Z,4.73
2019-04-29T02:49:56.099Z,4.87
2019-04-29T02:52:23.327Z,6.07
2019-04-29T02:54:52.551Z,5.90
2019-04-29T02:57:34.161Z,4.40
2019-04-29T03:00:13.475Z,5.90
2019-04-29T03:02:49.284Z,4.07
2019-04-29T03:05:19.998Z,3.60
2019-04-29T03:07:47.329Z,3.70
2019-04-29T03:10:14.717Z,4.70
2019-04-29T03:12:41.960Z,4.07
2019-04-29T03:15:09.293Z,4.50
2019-04-29T03:17:36.900Z,4.43
2019-04-29T03:20:25.210Z,3.80
2019-04-29T03:23:06.492Z,3.07
2019-04-29T03:25:33.891Z,3.47
2019-04-29T03:28:01.098Z,3.17
2019-04-29T03:30:28.347Z,2.97
2019-04-29T03:32:55.578Z,2.90
2019-04-29T03:35:22.810Z,2.50
2019-04-29T03:37:50.370Z,2.87
2019-04-29T03:40:17.617Z,3.43
2019-04-29T03:42:44.840Z,2.40
2019-04-29T03:45:12.223Z,2.70
2019-04-29T03:47:39.511Z,2.07
2019-04-29T03:50:06.913Z,3.00
2019-04-29T03:52:34.225Z,2.77
2019-04-29T03:55:01.588Z,2.67
2019-04-29T03:57:31.043Z,2.60
2019-04-29T03:59:58.293Z,1.80
2019-04-29T04:02:35.359Z,2.00
2019-04-29T04:05:21.027Z,1.77
2019-04-29T04:07:52.319Z,1.87
2019-04-29T04:10:19.548Z,1.70
2019-04-29T04:12:46.838Z,2.03
2019-04-29T04:15:14.103Z,1.60
2019-04-29T04:18:01.906Z,1.70
2019-04-29T04:20:29.131Z,1.97
2019-04-29T04:22:56.359Z,1.83
2019-04-29T04:25:23.662Z,1.70
2019-04-29T04:27:50.873Z,1.50
2019-04-29T04:30:18.587Z,1.70
2019-04-29T04:32:45.939Z,1.63
2019-04-29T04:35:13.249Z,1.73
2019-04-29T04:37:40.626Z,2.40
2019-04-29T04:40:13.114Z,1.70
2019-04-29T04:42:40.372Z,2.13
2019-04-29T04:45:07.912Z,2.20
2019-04-29T04:47:35.203Z,1.83
2019-04-29T04:50:02.931Z,1.77
2019-04-29T04:52:30.153Z,2.07
2019-04-29T04:54:57.421Z,2.00
2019-04-29T04:57:24.722Z,2.10
2019-04-29T04:59:51.971Z,1.40
2019-04-29T05:02:20.130Z,1.60
2019-04-29T05:04:47.383Z,2.83
2019-04-29T05:07:14.656Z,2.83
2019-04-29T05:09:41.894Z,2.80
2019-04-29T05:12:09.583Z,3.33
2019-04-29T05:14:36.889Z,2.40
2019-04-29T05:17:04.207Z,2.50
2019-04-29T05:19:31.634Z,2.27
2019-04-29T05:21:58.881Z,2.50
2019-04-29T05:24:26.119Z,3.20
2019-04-29T05:26:53.351Z,3.30
2019-04-29T05:29:20.645Z,3.20
2019-04-29T05:31:47.885Z,3.33
2019-04-29T05:34:15.455Z,2.93
2019-04-29T05:37:11.271Z,2.60
2019-04-29T05:39:40.103Z,2.40
2019-04-29T05:42:15.677Z,3.50
2019-04-29T05:44:48.462Z,2.53
2019-04-29T05:47:19.260Z,3.07
2019-04-29T05:50:06.648Z,3.03
2019-04-29T05:52:41.280Z,2.50
2019-04-29T05:55:09.515Z,4.23
2019-04-29T05:57:38.000Z,3.93
2019-04-29T06:00:05.544Z,3.27
2019-04-29T06:02:35.108Z,4.33
2019-04-29T06:05:02.815Z,3.70
2019-04-29T06:07:30.044Z,4.47
2019-04-29T06:09:57.396Z,3.80
2019-04-29T06:12:31.201Z,3.20
2019-04-29T06:14:58.430Z,3.00
2019-04-29T06:17:25.683Z,3.37
2019-04-29T06:19:52.923Z,2.57
2019-04-29T06:22:20.147Z,5.90
2019-04-29T06:24:47.426Z,5.30
2019-04-29T06:27:14.757Z,3.40
2019-04-29T06:29:42.360Z,4.87
2019-04-29T06:32:09.600Z,5.07
2019-04-29T06:34:40.190Z,3.77
2019-04-29T06:37:06.642Z,4.40
2019-04-29T06:39:34.316Z,4.07
2019-04-29T06:42:01.629Z,3.70
2019-04-29T06:44:28.857Z,6.97
2019-04-29T06:46:56.365Z,7.83
2019-04-29T06:49:23.699Z,5.40
2019-04-29T06:51:51.004Z,6.03
2019-04-29T06:54:18.307Z,7.33
2019-04-29T06:56:45.557Z,5.07
2019-04-29T06:59:14.017Z,5.60
2019-04-29T07:01:41.325Z,5.50
2019-04-29T07:04:09.680Z,6.73
2019-04-29T07:06:36.980Z,5.50
2019-04-29T07:09:05.789Z,6.37
2019-04-29T07:11:36.637Z,5.83
2019-04-29T07:14:02.137Z,8.67
2019-04-29T07:16:31.918Z,8.27
2019-04-29T07:18:58.792Z,7.90
2019-04-29T07:21:25.994Z,7.10
2019-04-29T07:23:53.252Z,6.67
2019-04-29T07:26:20.487Z,7.70
2019-04-29T07:28:48.760Z,7.40
2019-04-29T07:31:21.806Z,8.33
2019-04-29T07:49:22.521Z,7.27
2019-04-29T07:51:54.456Z,8.87
2019-04-29T07:54:21.638Z,8.53
2019-04-29T07:56:48.585Z,7.70
2019-04-29T07:59:15.552Z,9.53
2019-04-29T08:01:42.538Z,9.53
2019-04-29T08:04:09.521Z,8.93
2019-04-29T08:06:38.335Z,9.43
2019-04-29T08:09:07.963Z,9.27
2019-04-29T08:11:36.159Z,8.73
2019-04-29T08:14:03.267Z,9.53
2019-04-29T08:16:30.231Z,8.53
2019-04-29T08:18:57.240Z,8.87
2019-04-29T08:21:24.187Z,9.50
2019-04-29T08:23:51.137Z,10.00
2019-04-29T08:26:18.151Z,15.83
2019-04-29T08:28:45.112Z,15.83
2019-04-29T08:31:12.078Z,17.03
2019-04-29T08:33:42.461Z,16.70
2019-04-29T08:36:07.950Z,15.93
2019-04-29T08:38:34.906Z,15.20
2019-04-29T08:41:01.904Z,16.00
2019-04-29T08:43:48.497Z,11.53
2019-04-29T08:46:19.178Z,14.57
2019-04-29T08:48:46.185Z,12.23
2019-04-29T08:51:13.155Z,14.20
2019-04-29T08:53:40.171Z,13.53
2019-04-29T08:56:10.253Z,14.53
2019-04-29T08:58:39.174Z,12.63
2019-04-29T09:01:04.929Z,14.93
2019-04-29T09:03:40.200Z,14.57
2019-04-29T09:06:05.560Z,13.87
2019-04-29T09:08:32.829Z,14.63
2019-04-29T09:10:58.528Z,11.70
2019-04-29T09:13:25.510Z,13.93
2019-04-29T09:15:52.599Z,12.40
2019-04-29T09:18:19.564Z,10.10
2019-04-29T09:20:46.528Z,11.60
2019-04-29T09:23:16.570Z,13.37
2019-04-29T09:26:05.827Z,9.93
2019-04-29T09:28:32.819Z,12.40
2019-04-29T09:30:59.823Z,12.40
2019-04-29T09:33:26.775Z,11.47
2019-04-29T09:35:53.796Z,11.80
2019-04-29T09:38:20.744Z,12.63
2019-04-29T09:40:59.633Z,11.87
2019-04-29T09:43:44.983Z,11.03
2019-04-29T09:46:18.548Z,12.40
2019-04-29T09:48:45.068Z,12.33
2019-04-29T09:51:17.771Z,12.20
2019-04-29T09:53:40.996Z,11.83
2019-04-29T09:56:07.950Z,10.50
2019-04-29T09:58:34.941Z,9.93
2019-04-29T10:01:18.277Z,11.87
2019-04-29T10:04:06.708Z,10.73
2019-04-29T10:06:35.550Z,11.27
2019-04-29T10:09:04.941Z,10.20
2019-04-29T10:11:31.960Z,10.00
2019-04-29T10:13:58.950Z,9.90
2019-04-29T10:16:54.365Z,8.97
2019-04-29T10:19:41.714Z,11.67
2019-04-29T10:22:08.703Z,12.37
2019-04-29T10:24:35.824Z,10.40
2019-04-29T10:27:02.980Z,11.03
2019-04-29T10:29:31.760Z,11.60
2019-04-29T10:32:02.545Z,11.17
2019-04-29T10:34:31.578Z,11.67
2019-04-29T10:36:56.695Z,9.33
2019-04-29T10:39:42.449Z,11.53
2019-04-29T10:42:10.125Z,9.57
2019-04-29T10:44:55.251Z,8.53
2019-04-29T10:47:37.145Z,11.07
2019-04-29T10:50:15.377Z,8.93
2019-04-29T10:52:43.501Z,9.17
2019-04-29T10:55:11.049Z,8.70
2019-04-29T10:57:38.260Z,8.40
2019-04-29T11:00:23.514Z,7.23
2019-04-29T11:02:51.156Z,7.70
2019-04-29T11:05:31.725Z,6.27
2019-04-29T11:08:17.444Z,5.10
2019-04-29T11:10:44.487Z,4.90
2019-04-29T11:13:11.814Z,7.03
2019-04-29T11:15:38.795Z,4.40
2019-04-29T11:18:05.931Z,3.50
2019-04-29T11:20:34.194Z,3.77
2019-04-29T11:23:19.857Z,3.67
2019-04-29T11:26:15.535Z,2.53
2019-04-29T11:28:46.843Z,2.37
2019-04-29T11:31:14.456Z,2.33
2019-04-29T11:34:00.131Z,2.53
2019-04-29T11:36:27.494Z,2.20
2019-04-29T11:38:54.634Z,1.90
2019-04-29T11:41:21.627Z,2.33
2019-04-29T11:43:51.003Z,2.80
2019-04-29T11:46:20.796Z,2.13
2019-04-29T11:48:46.487Z,1.80
2019-04-29T11:51:28.750Z,1.83
2019-04-29T11:53:55.711Z,2.10
2019-04-29T11:56:22.821Z,2.00
2019-04-29T11:59:02.806Z,2.00
2019-04-29T12:01:59.766Z,2.70
2019-04-29T12:04:42.145Z,2.80
2019-04-29T12:07:08.834Z,2.97
2019-04-29T12:09:36.014Z,3.10
2019-04-29T12:12:03.031Z,2.47
2019-04-29T12:15:01.893Z,3.13
2019-04-29T12:17:41.928Z,3.27
2019-04-29T12:20:17.218Z,4.60
2019-04-29T12:22:48.537Z,5.17
2019-04-29T12:25:13.073Z,6.37
2019-04-29T12:27:40.058Z,5.50
2019-04-29T12:30:09.052Z,7.97
2019-04-29T12:32:49.510Z,8.63
2019-04-29T12:35:25.282Z,8.93
2019-04-29T12:38:18.968Z,7.80
2019-04-29T12:40:59.282Z,8.43
2019-04-29T12:43:35.468Z,6.07
2019-04-29T12:46:15.870Z,7.03
2019-04-29T12:48:42.910Z,7.33
2019-04-29T12:51:10.025Z,8.03
2019-04-29T12:56:31.482Z,10.30
2019-04-29T12:58:59.697Z,9.70
2019-04-29T13:01:51.041Z,8.00
2019-04-29T13:04:34.580Z,7.53
2019-04-29T13:07:24.056Z,8.27
2019-04-29T13:09:52.967Z,8.67
2019-04-29T13:12:20.200Z,9.23
2019-04-29T13:15:03.066Z,9.47
2019-04-29T13:17:32.179Z,11.00
2019-04-29T13:20:07.427Z,12.37
2019-04-29T13:22:31.719Z,13.13
2019-04-29T13:24:58.663Z,16.57
2019-04-29T13:27:26.670Z,16.67
2019-04-29T13:29:53.743Z,16.97
2019-04-29T13:32:20.798Z,16.40
2019-04-29T13:34:49.103Z,16.97
2019-04-29T13:37:19.767Z,16.40
2019-04-29T13:39:45.119Z,14.67
2019-04-29T13:42:15.607Z,14.20
2019-04-29T13:44:42.714Z,13.20
2019-04-29T13:47:34.432Z,15.83
2019-04-29T13:50:38.232Z,13.73
2019-04-29T13:52:49.887Z,16.70
2019-04-29T13:55:20.422Z,14.90
2019-04-29T13:57:49.557Z,14.40
2019-04-29T14:00:36.526Z,12.60
2019-04-29T14:03:11.634Z,15.57
2019-04-29T14:05:37.890Z,18.90
2019-04-29T14:08:05.682Z,20.27
2019-04-29T14:10:32.740Z,18.43
2019-04-29T14:13:09.812Z,20.20
2019-04-29T14:15:29.656Z,18.03
2019-04-29T14:17:57.528Z,17.43
2019-04-29T14:20:24.514Z,16.63
2019-04-29T14:22:51.539Z,17.10
2019-04-29T14:25:18.525Z,15.87
2019-04-29T14:27:45.477Z,16.97
2019-04-29T14:30:20.640Z,15.97
2019-04-29T14:32:49.717Z,15.80
2019-04-29T14:35:39.510Z,17.73
2019-04-29T14:38:06.553Z,19.53
2019-04-29T14:40:33.791Z,21.87
2019-04-29T14:43:31.357Z,17.63
2019-04-29T14:46:01.129Z,18.37
2019-04-29T14:48:42.211Z,16.10
2019-04-29T14:51:01.683Z,15.53
2019-04-29T14:53:28.742Z,14.63
2019-04-29T14:55:55.784Z,14.47
2019-04-29T14:58:22.868Z,14.20
2019-04-29T15:01:18.659Z,14.50
2019-04-29T15:04:00.005Z,11.57
2019-04-29T15:06:29.000Z,12.03
2019-04-29T15:08:55.978Z,13.30
2019-04-29T15:11:32.153Z,12.80
2019-04-29T15:14:01.437Z,11.20
2019-04-29T15:16:43.615Z,11.47
2019-04-29T15:19:28.927Z,10.40
2019-04-29T15:21:59.959Z,10.27
2019-04-29T15:24:32.069Z,11.10
2019-04-29T15:26:56.462Z,11.63
2019-04-29T15:29:23.609Z,9.47
2019-04-29T15:31:50.640Z,12.33
2019-04-29T15:34:17.814Z,8.67
2019-04-29T15:36:44.998Z,9.43
2019-04-29T15:39:12.559Z,10.53
2019-04-29T15:41:40.485Z,9.93
2019-04-29T15:44:09.042Z,9.13
2019-04-29T15:46:46.204Z,8.93
2019-04-29T15:49:05.530Z,9.67
2019-04-29T15:51:32.601Z,9.43
2019-04-29T15:53:59.617Z,9.77
2019-04-29T15:56:29.321Z,10.50
2019-04-29T15:58:58.996Z,11.10
2019-04-29T16:01:27.885Z,11.63
2019-04-29T16:03:57.008Z,11.20
2019-04-29T16:06:49.730Z,10.53
2019-04-29T16:09:50.580Z,9.77
2019-04-29T16:12:24.960Z,8.10
2019-04-29T16:14:51.976Z,10.60
2019-04-29T16:17:20.605Z,11.30
2019-04-29T16:19:47.981Z,8.73
2019-04-29T16:22:19.816Z,9.73
2019-04-29T16:24:43.957Z,9.83
2019-04-29T16:27:11.016Z,8.43
2019-04-29T16:29:38.017Z,10.17
2019-04-29T16:32:08.405Z,9.63
2019-04-29T16:34:37.396Z,8.23
2019-04-29T16:37:04.845Z,10.63
2019-04-29T16:39:32.015Z,10.90
2019-04-29T16:42:21.370Z,9.60
2019-04-29T16:44:48.408Z,8.63
2019-04-29T16:47:16.263Z,9.80
2019-04-29T16:49:43.311Z,7.63
2019-04-29T16:52:10.361Z,6.60
2019-04-29T16:54:37.444Z,7.53
2019-04-29T16:57:04.717Z,8.83
2019-04-29T16:59:31.781Z,7.03
2019-04-29T17:01:58.857Z,7.27
2019-04-29T17:04:26.060Z,7.60
2019-04-29T17:07:11.863Z,6.83
2019-04-29T17:09:47.487Z,9.50
2019-04-29T17:12:14.533Z,6.40
2019-04-29T17:15:02.164Z,7.67
2019-04-29T17:17:15.284Z,8.07
2019-04-29T17:19:42.366Z,6.40
2019-04-29T17:22:24.859Z,7.43
2019-04-29T17:24:39.409Z,6.77
2019-04-29T17:27:42.090Z,8.77
2019-04-29T17:30:38.278Z,8.73
2019-04-29T17:33:31.282Z,8.37
2019-04-29T17:35:58.982Z,7.40
2019-04-29T17:38:26.005Z,5.80
2019-04-29T17:40:53.023Z,6.23
2019-04-29T17:43:32.875Z,6.00
2019-04-29T17:46:28.695Z,6.93
2019-04-29T17:49:03.269Z,8.13
2019-04-29T17:51:31.702Z,8.23
2019-04-29T17:54:00.695Z,10.07
2019-04-29T17:56:35.102Z,8.00
2019-04-29T17:59:15.809Z,11.37
2019-04-29T18:01:58.622Z,7.97
2019-04-29T18:04:38.875Z,6.67
2019-04-29T18:07:25.477Z,8.20
2019-04-29T18:09:59.910Z,9.47
2019-04-29T18:12:26.951Z,10.83
2019-04-29T18:14:55.097Z,9.67
2019-04-29T18:17:30.372Z,11.47
2019-04-29T18:20:17.152Z,10.37
2019-04-29T18:23:00.991Z,11.23
2019-04-29T18:25:41.317Z,11.67
2019-04-29T18:28:08.590Z,12.03
2019-04-29T18:30:38.300Z,12.07
2019-04-29T18:33:05.360Z,13.23
2019-04-29T18:35:32.589Z,17.93
2019-04-29T18:37:59.650Z,14.80
2019-04-29T18:40:26.674Z,14.00
2019-04-29T18:42:55.395Z,14.03
2019-04-29T18:45:25.403Z,15.87
2019-04-29T18:47:51.567Z,16.67
2019-04-29T18:50:19.066Z,16.47
2019-04-29T18:52:46.101Z,15.63
2019-04-29T18:55:13.157Z,15.80
2019-04-29T18:57:40.289Z,17.40
2019-04-29T19:00:12.716Z,18.87
2019-04-29T19:02:45.354Z,17.50
2019-04-29T19:05:18.866Z,18.00
2019-04-29T19:07:55.010Z,16.97
2019-04-29T19:10:18.380Z,20.40
2019-04-29T19:12:45.993Z,18.47
2019-04-29T19:15:15.081Z,16.47
2019-04-29T19:17:42.462Z,19.93
2019-04-29T19:20:12.899Z,17.73
2019-04-29T19:22:44.151Z,16.07
2019-04-29T19:25:11.759Z,16.93
2019-04-29T19:27:40.076Z,18.47
2019-04-29T19:30:08.407Z,17.03
2019-04-29T19:32:36.657Z,15.60
2019-04-29T19:35:04.346Z,13.97
2019-04-29T19:37:32.404Z,18.63
2019-04-29T19:40:00.319Z,20.03
2019-04-29T19:42:29.664Z,20.10
2019-04-29T19:44:56.337Z,17.83
2019-04-29T19:47:23.348Z,17.20
2019-04-29T19:49:50.419Z,20.80
2019-04-29T19:52:27.867Z,18.80
2019-04-29T19:54:46.373Z,19.30
2019-04-29T19:57:14.951Z,16.17
2019-04-29T19:59:50.272Z,18.60
2019-04-29T20:02:11.746Z,17.43
2019-04-29T20:04:59.702Z,20.50
2019-04-29T20:07:28.267Z,17.87
2019-04-29T20:10:04.015Z,20.60
2019-04-29T20:12:25.627Z,16.67
2019-04-29T20:14:58.790Z,20.43
2019-04-29T20:17:47.882Z,20.17
2019-04-29T20:20:48.253Z,26.17
2019-04-29T20:23:20.174Z,23.23
2019-04-29T20:25:48.063Z,19.63
2019-04-29T20:28:18.418Z,21.13
2019-04-29T20:30:42.408Z,19.10
2019-04-29T20:33:12.587Z,22.93
2019-04-29T20:35:40.500Z,20.03
2019-04-29T20:38:07.510Z,17.40
2019-04-29T20:40:36.273Z,22.93
2019-04-29T20:43:05.750Z,24.03
2019-04-29T20:45:32.819Z,24.53
2019-04-29T20:47:59.993Z,25.63
2019-04-29T20:50:27.304Z,26.60
2019-04-29T20:53:05.089Z,26.40
2019-04-29T20:55:36.349Z,24.87
2019-04-29T20:58:03.509Z,23.87
2019-04-29T21:00:31.824Z,24.77
2019-04-29T21:02:59.084Z,19.27
2019-04-29T21:05:27.649Z,22.97
2019-04-29T21:08:03.013Z,20.67
2019-04-29T21:10:25.420Z,20.70
2019-04-29T21:13:20.287Z,20.57
2019-04-29T21:15:59.512Z,21.20
2019-04-29T21:18:27.105Z,18.00
2019-04-29T21:20:55.141Z,19.13
2019-04-29T21:23:23.736Z,21.87
2019-04-29T21:25:51.020Z,18.70
2019-04-29T21:28:18.012Z,19.03
2019-04-29T21:30:45.254Z,20.67
2019-04-29T21:33:17.846Z,23.43
2019-04-29T21:35:49.634Z,21.57
2019-04-29T21:38:39.261Z,19.07
2019-04-29T21:41:09.934Z,20.73
2019-04-29T21:43:38.731Z,20.17
2019-04-29T21:46:05.847Z,21.37
2019-04-29T21:48:35.023Z,19.70
2019-04-29T21:51:01.841Z,20.43
2019-04-29T21:53:31.575Z,19.10
2019-04-29T21:55:59.679Z,22.53
2019-04-29T21:58:28.616Z,25.00
2019-04-29T22:00:59.104Z,25.70
2019-04-29T22:03:27.770Z,19.00
2019-04-29T22:05:55.580Z,19.60
2019-04-29T22:08:27.554Z,21.87
2019-04-29T22:10:52.155Z,24.33
2019-04-29T22:13:19.281Z,22.47
2019-04-29T22:15:46.286Z,25.30
2019-04-29T22:18:15.569Z,22.97
2019-04-29T22:20:43.411Z,21.97
2019-04-29T22:23:13.100Z,23.03
2019-04-29T22:25:41.014Z,22.07
2019-04-29T22:28:10.679Z,19.87
2019-04-29T22:30:37.401Z,20.43
2019-04-29T22:33:05.215Z,18.43
2019-04-29T22:35:36.372Z,20.13
2019-04-29T22:38:01.405Z,18.20
2019-04-29T22:40:28.444Z,23.03
2019-04-29T22:43:16.889Z,20.97
2019-04-29T22:45:43.865Z,24.97
2019-04-29T22:48:16.951Z,23.40
2019-04-29T22:50:39.790Z,25.23
2019-04-29T22:53:08.884Z,27.53
2019-04-29T22:55:38.775Z,22.40
2019-04-29T22:58:07.875Z,24.03
2019-04-29T23:00:33.972Z,19.00
2019-04-29T23:03:02.244Z,19.40
2019-04-29T23:05:29.960Z,18.97
2019-04-29T23:08:00.048Z,16.70
2019-04-29T23:10:27.866Z,18.70
2019-04-29T23:12:57.456Z,18.90
2019-04-29T23:15:25.957Z,20.40
2019-04-29T23:17:52.975Z,19.00
2019-04-29T23:20:48.539Z,23.47
2019-04-29T23:23:21.166Z,25.90
2019-04-29T23:25:50.481Z,23.80
2019-04-29T23:28:17.683Z,22.47
2019-04-29T23:30:47.870Z,26.67
2019-04-29T23:33:15.067Z,31.47
2019-04-29T23:35:44.790Z,23.73
2019-04-29T23:38:12.085Z,26.50
2019-04-29T23:40:39.296Z,19.33
2019-04-29T23:43:06.454Z,19.77
2019-04-29T23:45:35.105Z,22.67
2019-04-29T23:48:02.494Z,20.97
2019-04-29T23:50:29.654Z,21.23
2019-04-29T23:52:56.816Z,20.53
2019-04-29T23:55:27.353Z,21.70
2019-04-29T23:58:06.187Z,19.87
